De Kooy, Netherlands

2:24 PM CET on February 09, 2016 (GMT +0100)
Meteo-Julianadorp | | Change Station
CLOSE
Current Station
Personal Weather Station
Location: Julianadorp, Noord Holland
Elevation: 24 ft
Nearby Weather Stations

Elev 24 ft 52.89 °N, 4.74 °E | Updated 0 second ago

Scattered Clouds
Scattered Clouds
44.6 °F
Feels Like 45 °F
N
2.3
Wind Variable Wind from SSW
Gusts 2.3 mph

Today
High -- | Low -- °F
--% Chance of Precip.
Yesterday
High -- | Low -- °F
Precip. -- in
Pressure 29.00 in
Visibility 6.2 miles
Clouds Scattered Clouds 2400 ft
Scattered Clouds 2700 ft
Windchill 45 °F
Dew Point 40 °F
Humidity 83%
Rainfall 0.05 in
Snow Depth Not available.
8:11 AM 5:39 PM
New Moon, 1% visible
SPECI EHVL 091318Z AUTO 21011KT 9999 SCT024 SCT027 07/04 Q0982 WHT
Pressure 29.00 in
Visibility 6.2 miles
Clouds Scattered Clouds 2400 ft
Scattered Clouds 2700 ft
Windchill 45 °F
Dew Point 40 °F
Humidity 83%
Rainfall 0.05 in
Snow Depth Not available.
8:11 AM 5:39 PM
New Moon, 1% visible
SPECI EHVL 091318Z AUTO 21011KT 9999 SCT024 SCT027 07/04 Q0982 WHT

10-Day Weather Forecast

Almanac

Astronomy

Feb. 09, 2016 Rise Set
Actual Time
Civil Twilight
Nautical Twilight
Astronomical Twilight
Moon
Length of Visible Light
Length of Day
Tomorrow will be .
, % of the Moon is Illuminated

Today's Extremes

Country Highs Country Lows

Community

WunderPhotos

Upload Photos

1,891,591 photos uploaded!

WunderBlog® & News

Nearby

Air Quality

  Air Quality AQ Index Pollutant
Not available.

Snow Depth

Station Depth Elevation

Earthquake Activity

City Distance Mag. Time & Date
Minimum magnitude displayed is 2.5.

Coastal Water Temperatures

Place Temperature

Stations

Nearby Weather Stations

Station Location Temp. Windchill Dew Point Humidity Wind Precip. Elev Updated Type